CYAZ/YAZ METAR and TAF weather

Enter ICAO airport designator
Station Type Date Time Source
CYAZ METAR 2018/12/13 00:28 UTC NOAA

CYAZ 130028Z 15014G21KT 3SM +SHRA BKN008 OVC015 08/07 A2998 RMK CF5CU3 SLP155


Station Type Date Time Source
CYAZ Decoded METAR 2018/12/13 00:28 UTC NOAA

Tofino Airport, Canada (CYAZ) 49-05N 125-46W
Dec 12, 2018 - 07:28 PM EST / 2018.12.13 0028 UTC
Wind: from the SSE (150 degrees) at 16 MPH (14 KT) gusting to 24 MPH (21 KT):0
Visibility: 3 mile(s):0
Sky conditions: overcast
Weather: heavy rain showers
Temperature: 46 F (8 C)
Dew Point: 44 F (7 C)
Relative Humidity: 93%
Pressure (altimeter): 29.98 in. Hg (1015 hPa)
ob: CYAZ 130028Z 15014G21KT 3SM +SHRA BKN008 OVC015 08/07 A2998 RMK CF5CU3 SLP155
cycle: 0

Station Type Date Time Source
CYAZ TAF 2018/12/12 21:45 UTC NOAA

TAF
AMD TAF
AMD CYAZ 122143Z 1221/1301 14008KT P6SM -SHRA SCT020 OVC040
TEMPO 1221/1301 3SM SHRA BR BKN005 OVC020
BECMG 1222/1224 15018G28KT
RMK NXT FCST WILL BE ISSUED AT 131645Z


Example: see airport list